Time;durP1;ratioP1;P1;durP2;ratioP2;P2;SDS_P1;SDS_P2;PMS_P1;PMS_P2;Temp;Humidity;BMP_temperature;BMP_pressure;BME280_temperature;BME280_humidity;BME280_pressure;Samples;Min_cycle;Max_cycle;Signal;HPM_P1;HPM_P2
2023/12/17 00:01:13;;;;;;;3.28;1.30;;;;;;;12.84;39.89;98077.28;5061413;28;20057;-26
2023/12/17 00:03:39;;;;;;;3.00;1.40;;;;;;;12.98;39.55;98068.22;5083435;28;20076;-25
2023/12/17 00:06:05;;;;;;;4.03;1.50;;;;;;;13.00;39.33;98074.00;5084768;28;20031;-26
2023/12/17 00:08:30;;;;;;;5.82;2.72;;;;;;;12.77;40.07;98071.09;5085646;28;20020;-25
2023/12/17 00:10:57;;;;;;;4.40;1.85;;;;;;;12.89;40.27;98067.88;5080838;28;20066;-26
2023/12/17 00:13:24;;;;;;;4.40;2.10;;;;;;;12.89;39.76;98065.16;5079230;28;20024;-25
2023/12/17 00:15:49;;;;;;;4.85;1.90;;;;;;;12.92;39.96;98058.91;5084045;28;20137;-25
2023/12/17 00:18:15;;;;;;;5.38;1.70;;;;;;;12.81;40.22;98063.69;5084481;28;20026;-26
2023/12/17 00:20:40;;;;;;;3.85;1.67;;;;;;;12.99;39.95;98056.13;5077793;28;20158;-25
2023/12/17 00:23:06;;;;;;;5.18;1.65;;;;;;;12.81;39.84;98066.41;5082182;28;20020;-25
2023/12/17 00:25:31;;;;;;;4.65;1.60;;;;;;;13.00;39.66;98065.06;5079913;28;20039;-26
2023/12/17 00:27:57;;;;;;;4.47;1.50;;;;;;;12.97;39.95;98061.22;5080921;28;20029;-25
2023/12/17 00:30:23;;;;;;;4.80;1.95;;;;;;;12.84;39.87;98060.16;5083906;28;20021;-26
2023/12/17 00:32:49;;;;;;;7.15;2.70;;;;;;;13.07;39.81;98067.75;5084071;28;20028;-26
2023/12/17 00:35:14;;;;;;;6.05;1.77;;;;;;;12.78;39.92;98070.69;5082000;28;20024;-25
2023/12/17 00:37:40;;;;;;;4.70;1.20;;;;;;;12.85;39.96;98067.16;5081054;28;20039;-26
2023/12/17 00:40:06;;;;;;;2.92;1.20;;;;;;;12.72;39.79;98074.25;5080495;28;20111;-26
2023/12/17 00:42:32;;;;;;;3.85;1.80;;;;;;;12.93;39.81;98088.47;5083532;28;20021;-26
2023/12/17 00:44:58;;;;;;;6.63;2.53;;;;;;;12.98;39.49;98084.56;5086441;28;20408;-26
2023/12/17 00:47:23;;;;;;;8.82;3.78;;;;;;;12.93;39.73;98088.47;5081249;28;20035;-26
2023/12/17 00:49:48;;;;;;;7.30;2.25;;;;;;;13.03;39.30;98086.84;5087786;28;20025;-26
2023/12/17 00:52:14;;;;;;;3.97;1.40;;;;;;;12.89;39.90;98070.59;5080576;28;20363;-25
2023/12/17 00:54:39;;;;;;;3.05;1.15;;;;;;;12.66;40.34;98075.84;5088170;28;20024;-25
2023/12/17 00:57:05;;;;;;;2.28;0.98;;;;;;;12.87;40.31;98078.41;5072889;28;20017;-25
2023/12/17 00:59:30;;;;;;;3.42;1.50;;;;;;;12.85;39.93;98084.25;5080982;28;20024;-26
2023/12/17 01:01:56;;;;;;;19.30;6.65;;;;;;;12.86;39.95;98077.63;5080896;28;20017;-26
2023/12/17 01:04:21;;;;;;;14.00;5.28;;;;;;;12.81;39.82;98078.06;5086548;28;20398;-26
2023/12/17 01:06:47;;;;;;;19.92;6.60;;;;;;;12.73;40.34;98078.53;5074181;28;20024;-26
2023/12/17 01:09:12;;;;;;;14.98;5.50;;;;;;;12.70;40.31;98087.50;5077717;28;20019;-25
2023/12/17 01:11:38;;;;;;;13.40;5.60;;;;;;;12.81;39.73;98097.13;5076628;28;20025;-26
2023/12/17 01:14:03;;;;;;;12.43;4.82;;;;;;;12.89;39.66;98084.22;5082668;28;20069;-26
2023/12/17 01:16:31;;;;;;;13.20;5.97;;;;;;;12.65;40.13;98079.72;5083660;28;20050;-26
2023/12/17 01:18:57;;;;;;;14.57;5.70;;;;;;;12.71;40.09;98089.03;5075018;28;20103;-27
2023/12/17 01:21:22;;;;;;;10.27;3.45;;;;;;;12.62;40.29;98086.75;5080210;28;20115;-26
2023/12/17 01:23:48;;;;;;;6.22;2.63;;;;;;;12.73;40.02;98098.34;5080259;28;20425;-25
2023/12/17 01:26:23;;;;;;;3.65;1.20;;;;;;;12.81;39.57;98088.19;5074694;28;20125;-26
2023/12/17 01:28:51;;;;;;;4.20;1.38;;;;;;;12.74;40.16;98089.00;5083499;28;20024;-26
2023/12/17 01:31:17;;;;;;;2.47;1.25;;;;;;;12.70;40.04;98087.50;5075048;28;20017;-26
2023/12/17 01:33:42;;;;;;;1.90;1.00;;;;;;;12.51;40.76;98091.47;5060596;28;20371;-26
2023/12/17 01:36:08;;;;;;;2.13;1.00;;;;;;;12.93;39.81;98085.75;5073125;28;20044;-26
2023/12/17 01:38:33;;;;;;;4.75;1.40;;;;;;;12.85;40.21;98086.22;5062711;28;20027;-26
2023/12/17 01:40:59;;;;;;;2.15;1.10;;;;;;;12.52;40.37;98076.72;5083369;28;20021;-26
2023/12/17 01:43:24;;;;;;;1.75;1.15;;;;;;;12.71;39.96;98081.66;5084109;28;20029;-25
2023/12/17 01:45:51;;;;;;;1.20;0.90;;;;;;;12.70;40.54;98071.94;5076712;28;20029;-26
2023/12/17 01:48:17;;;;;;;3.30;1.35;;;;;;;12.85;40.24;98062.47;5081371;22;20115;-23
2023/12/17 01:50:42;;;;;;;5.60;1.25;;;;;;;12.73;40.35;98051.31;5040201;28;20022;-23
2023/12/17 01:53:08;;;;;;;2.90;0.98;;;;;;;12.63;40.80;98058.34;5043217;28;20355;-23
2023/12/17 01:55:34;;;;;;;3.20;1.15;;;;;;;12.77;40.71;98081.97;5038772;28;20143;-23
2023/12/17 01:58:00;;;;;;;2.38;1.50;;;;;;;12.77;40.46;98046.59;5045562;28;20017;-23
2023/12/17 02:00:25;;;;;;;1.52;1.02;;;;;;;12.73;40.28;98048.59;5037541;28;20056;-23
2023/12/17 02:02:51;;;;;;;2.55;1.15;;;;;;;12.62;40.29;98047.88;5044929;28;20022;-23
2023/12/17 02:05:16;;;;;;;3.30;1.33;;;;;;;12.74;40.23;98050.09;5044630;28;20021;-23
2023/12/17 02:07:42;;;;;;;2.38;1.42;;;;;;;12.86;40.38;98052.34;5038517;28;20419;-22
2023/12/17 02:10:08;;;;;;;3.33;1.10;;;;;;;12.68;40.57;98051.72;5037974;28;20022;-23
2023/12/17 02:12:34;;;;;;;5.80;1.58;;;;;;;12.43;40.71;98058.13;5037334;28;20075;-23
2023/12/17 02:14:59;;;;;;;2.95;1.40;;;;;;;12.55;40.73;98054.16;5045225;28;20466;-23
2023/12/17 02:17:28;;;;;;;6.03;1.38;;;;;;;12.50;40.83;98049.88;5041230;28;20044;-23
2023/12/17 02:19:53;;;;;;;5.07;1.35;;;;;;;12.61;40.84;98068.13;5040643;28;20061;-23
2023/12/17 02:22:21;;;;;;;2.80;1.17;;;;;;;12.38;40.90;98055.81;5045235;28;20048;-23
2023/12/17 02:24:47;;;;;;;2.97;0.98;;;;;;;12.51;40.90;98065.03;5037817;28;20049;-23
2023/12/17 02:27:19;;;;;;;3.53;0.88;;;;;;;12.71;40.88;98064.53;5038792;28;20060;-23
2023/12/17 02:29:45;;;;;;;4.25;1.25;;;;;;;12.52;40.82;98071.25;5042483;28;20022;-23
2023/12/17 02:32:10;;;;;;;1.65;0.93;;;;;;;12.43;41.24;98090.00;5044791;28;20040;-23
2023/12/17 02:34:36;;;;;;;1.30;0.68;;;;;;;12.75;40.49;98078.88;5037571;28;20025;-23
2023/12/17 02:37:01;;;;;;;3.35;0.93;;;;;;;12.63;40.72;98082.06;5036692;28;20025;-23
2023/12/17 02:39:28;;;;;;;1.33;0.63;;;;;;;12.27;41.19;98082.28;5045447;28;20466;-23
2023/12/17 02:41:53;;;;;;;2.45;0.90;;;;;;;12.00;41.87;98089.41;5044265;28;20421;-23
2023/12/17 02:44:19;;;;;;;2.33;1.10;;;;;;;12.66;40.68;98092.16;5038091;28;20040;-23
2023/12/17 02:46:44;;;;;;;3.13;0.93;;;;;;;12.66;40.86;98097.63;5026058;28;20029;-23
2023/12/17 02:49:11;;;;;;;4.15;0.90;;;;;;;12.43;41.22;98098.16;5036775;28;20068;-23
2023/12/17 02:51:37;;;;;;;2.45;0.93;;;;;;;12.52;41.09;98093.81;5037468;28;20025;-23
2023/12/17 02:54:02;;;;;;;2.00;0.70;;;;;;;12.73;40.52;98090.19;5036584;28;20512;-23
2023/12/17 02:56:28;;;;;;;3.63;1.00;;;;;;;12.77;40.72;98084.69;5037157;28;20079;-23
2023/12/17 02:58:53;;;;;;;7.40;1.85;;;;;;;12.60;41.25;98078.22;5043540;28;20025;-23
2023/12/17 03:01:18;;;;;;;3.15;1.02;;;;;;;12.62;40.85;98097.63;5036352;28;20013;-23
2023/12/17 03:03:44;;;;;;;3.42;1.10;;;;;;;12.53;41.38;98092.63;5045235;28;20029;-23
2023/12/17 03:06:11;;;;;;;5.00;1.73;;;;;;;12.67;41.16;98082.84;5036817;28;20021;-23
2023/12/17 03:08:38;;;;;;;3.38;0.90;;;;;;;12.69;40.75;98080.50;5036412;28;20110;-23
2023/12/17 03:11:03;;;;;;;3.00;1.02;;;;;;;12.73;41.30;98081.25;5044063;28;20024;-23
2023/12/17 03:13:30;;;;;;;3.88;1.10;;;;;;;12.76;41.29;98080.44;5042036;28;20024;-23
2023/12/17 03:15:55;;;;;;;6.88;2.03;;;;;;;12.59;41.47;98082.91;5038777;28;20039;-23
2023/12/17 03:18:21;;;;;;;4.07;1.50;;;;;;;12.77;41.01;98082.75;5036348;28;20013;-23
2023/12/17 03:20:46;;;;;;;4.53;2.08;;;;;;;12.77;40.84;98082.75;5036480;28;20104;-23
2023/12/17 03:23:12;;;;;;;6.75;2.15;;;;;;;12.83;41.01;98085.84;5038683;28;20047;-23
2023/12/17 03:25:37;;;;;;;9.85;3.65;;;;;;;12.70;41.45;98087.50;5041037;28;20064;-23
2023/12/17 03:28:03;;;;;;;5.70;2.17;;;;;;;12.76;41.29;98074.97;5044071;28;20360;-23
2023/12/17 03:30:28;;;;;;;4.20;1.83;;;;;;;12.72;41.01;98090.59;5035758;28;20036;-23
2023/12/17 03:32:54;;;;;;;6.30;2.10;;;;;;;12.73;41.39;98078.53;5036203;28;20029;-23
2023/12/17 03:35:22;;;;;;;5.40;1.60;;;;;;;12.63;41.36;98074.69;5036379;28;20033;-23
2023/12/17 03:37:48;;;;;;;5.25;1.58;;;;;;;12.74;41.43;98082.78;5043311;28;20021;-23
2023/12/17 03:40:13;;;;;;;3.67;1.45;;;;;;;12.68;41.60;98070.78;5043296;28;20508;-23
2023/12/17 03:42:39;;;;;;;4.38;1.23;;;;;;;12.77;40.88;98069.13;5036193;28;20017;-23
2023/12/17 03:45:05;;;;;;;2.97;1.20;;;;;;;12.71;40.96;98078.16;5035480;28;20428;-23
2023/12/17 03:47:31;;;;;;;3.60;1.25;;;;;;;12.83;40.82;98083.88;5036828;28;20398;-23
2023/12/17 03:49:56;;;;;;;2.58;0.93;;;;;;;12.61;41.58;98079.75;5035473;28;20393;-23
2023/12/17 03:52:21;;;;;;;2.88;0.90;;;;;;;12.47;41.32;98091.53;5035475;28;20021;-23
2023/12/17 03:54:47;;;;;;;2.20;1.35;;;;;;;12.53;41.52;98091.88;5043257;28;20131;-23
2023/12/17 03:57:13;;;;;;;2.50;1.00;;;;;;;12.58;41.10;98092.22;5035881;28;20025;-23
2023/12/17 03:59:38;;;;;;;4.38;1.75;;;;;;;12.48;41.31;98081.41;5036007;28;20052;-23
2023/12/17 04:02:03;;;;;;;3.15;1.10;;;;;;;12.49;41.49;98089.16;5038764;28;20044;-23
2023/12/17 04:04:29;;;;;;;3.10;1.00;;;;;;;12.53;41.05;98094.59;5038484;28;20021;-23
2023/12/17 04:06:54;;;;;;;3.95;1.00;;;;;;;12.59;41.21;98091.06;5042659;28;20099;-23
2023/12/17 04:09:21;;;;;;;2.42;1.80;;;;;;;12.33;41.70;98101.72;5035281;28;20474;-23
2023/12/17 04:11:46;;;;;;;4.50;1.30;;;;;;;12.73;40.86;98094.88;5036100;28;20037;-23
2023/12/17 04:14:12;;;;;;;3.83;1.20;;;;;;;12.72;41.11;98094.09;5035497;28;20028;-23
2023/12/17 04:16:38;;;;;;;2.88;1.30;;;;;;;12.67;40.69;98101.88;5035541;28;20021;-23
2023/12/17 04:19:03;;;;;;;4.88;1.40;;;;;;;12.59;40.91;98099.22;5036605;28;20029;-23
2023/12/17 04:21:29;;;;;;;7.03;2.28;;;;;;;12.71;40.88;98106.16;5048732;28;20019;-23
2023/12/17 04:23:54;;;;;;;5.00;1.88;;;;;;;12.74;40.68;98118.16;5035780;28;20029;-23
2023/12/17 04:26:20;;;;;;;4.80;1.45;;;;;;;12.43;41.57;98112.53;5035167;28;20087;-23
2023/12/17 04:28:45;;;;;;;2.72;1.35;;;;;;;12.69;40.98;98103.03;5035374;28;20018;-23
2023/12/17 04:31:11;;;;;;;4.70;1.48;;;;;;;12.76;40.36;98110.38;5035471;28;20017;-23
2023/12/17 04:33:36;;;;;;;3.33;1.45;;;;;;;12.65;40.75;98107.72;5042080;28;20064;-23
2023/12/17 04:36:02;;;;;;;4.68;1.73;;;;;;;12.71;40.45;98113.53;5041924;28;20032;-23
2023/12/17 04:38:27;;;;;;;2.42;1.10;;;;;;;12.68;41.04;98100.72;5037986;28;20079;-23
2023/12/17 04:40:52;;;;;;;3.55;1.00;;;;;;;12.53;41.17;98103.53;5039941;28;20382;-23
2023/12/17 04:43:18;;;;;;;8.93;1.20;;;;;;;12.60;40.94;98124.50;5035198;28;20394;-23
2023/12/17 04:45:43;;;;;;;3.60;1.17;;;;;;;12.47;40.94;98126.91;5038115;28;20496;-23
2023/12/17 04:48:09;;;;;;;1.63;0.82;;;;;;;12.41;41.07;98124.97;5038818;28;20052;-23
2023/12/17 04:50:34;;;;;;;2.80;1.38;;;;;;;12.58;40.98;98119.44;5041905;28;20036;-23
2023/12/17 04:53:00;;;;;;;3.53;1.10;;;;;;;12.56;40.87;98118.28;5035011;28;20401;-23
2023/12/17 04:55:25;;;;;;;3.40;0.90;;;;;;;12.51;40.83;98124.91;5017052;28;20070;-23
2023/12/17 04:57:51;;;;;;;2.85;0.90;;;;;;;12.53;40.63;98128.03;5035236;28;20025;-23
2023/12/17 05:00:16;;;;;;;1.63;0.70;;;;;;;12.49;40.73;98113.66;5034378;28;20113;-23
2023/12/17 05:02:42;;;;;;;3.58;0.98;;;;;;;12.35;41.30;98119.19;5035661;28;20013;-23
2023/12/17 05:05:07;;;;;;;2.92;1.00;;;;;;;12.54;40.61;98107.81;5034136;28;20017;-23
2023/12/17 05:07:33;;;;;;;3.17;0.98;;;;;;;12.43;40.71;98112.53;5033695;28;20029;-23
2023/12/17 05:09:59;;;;;;;2.70;1.02;;;;;;;12.37;41.27;98119.53;5035280;28;20025;-23
2023/12/17 05:12:24;;;;;;;2.92;0.88;;;;;;;12.48;40.65;98117.56;5034222;28;20558;-23
2023/12/17 05:14:50;;;;;;;1.85;0.75;;;;;;;12.52;40.55;98112.09;5034950;28;20025;-23
2023/12/17 05:17:15;;;;;;;1.55;0.70;;;;;;;12.54;40.55;98120.63;5041142;28;20100;-23
2023/12/17 05:19:41;;;;;;;3.08;1.10;;;;;;;12.45;41.15;98137.41;5041281;28;20036;-23
2023/12/17 05:22:06;;;;;;;1.83;0.80;;;;;;;12.42;40.79;98132.75;5042708;28;20014;-23
2023/12/17 05:24:32;;;;;;;3.10;1.00;;;;;;;12.56;40.75;98135.41;5034622;28;20071;-23
2023/12/17 05:26:57;;;;;;;2.60;0.70;;;;;;;12.57;40.56;98152.50;5034324;28;20022;-23
2023/12/17 05:29:23;;;;;;;2.42;0.90;;;;;;;12.70;40.33;98150.09;5041697;28;20469;-23
2023/12/17 05:31:48;;;;;;;3.42;0.93;;;;;;;12.46;40.14;98160.72;5033878;28;20031;-23
2023/12/17 05:34:14;;;;;;;4.47;0.85;;;;;;;12.43;40.54;98158.78;5035101;28;20083;-23
2023/12/17 05:36:40;;;;;;;1.90;1.05;;;;;;;12.47;40.58;98169.66;5034451;28;20398;-23
2023/12/17 05:39:05;;;;;;;2.35;0.95;;;;;;;12.42;40.58;98176.28;5033893;28;20024;-23
2023/12/17 05:41:31;;;;;;;6.93;1.10;;;;;;;12.59;40.29;98174.66;5036140;28;20088;-23
2023/12/17 05:43:56;;;;;;;3.78;0.90;;;;;;;12.58;40.33;98181.28;5038864;28;20033;-23
2023/12/17 05:46:22;;;;;;;3.13;1.00;;;;;;;12.42;40.37;98179.00;5034386;28;20030;-23
2023/12/17 05:48:47;;;;;;;1.70;0.80;;;;;;;12.54;40.43;98184.00;5033643;28;20053;-23
2023/12/17 05:51:13;;;;;;;1.77;0.73;;;;;;;12.49;40.60;98176.25;5034489;28;20018;-23
2023/12/17 05:53:38;;;;;;;3.35;0.80;;;;;;;12.50;40.62;98185.97;5034296;28;20080;-23
2023/12/17 05:56:04;;;;;;;2.00;1.10;;;;;;;12.52;40.31;98191.00;5040697;28;20018;-23
2023/12/17 05:58:29;;;;;;;1.92;0.80;;;;;;;12.35;40.87;98192.66;5041258;28;20017;-23
2023/12/17 06:00:56;;;;;;;3.42;0.80;;;;;;;12.41;41.06;98184.84;5034659;28;20072;-23
2023/12/17 06:03:21;;;;;;;2.13;0.70;;;;;;;12.48;40.50;98191.03;5041562;28;20391;-23
2023/12/17 06:05:47;;;;;;;4.75;0.90;;;;;;;12.48;40.39;98191.03;5034322;28;20028;-23
2023/12/17 06:08:12;;;;;;;2.85;0.93;;;;;;;12.48;39.96;98187.53;5037422;28;20487;-23
2023/12/17 06:10:39;;;;;;;2.70;0.90;;;;;;;12.58;39.99;98182.03;5037101;28;20076;-23
2023/12/17 06:13:05;;;;;;;2.83;1.20;;;;;;;12.55;39.97;98176.63;5040884;28;20107;-23
2023/12/17 06:15:30;;;;;;;2.17;1.02;;;;;;;12.20;40.99;98167.44;5033604;28;20052;-23
2023/12/17 06:17:56;;;;;;;2.65;0.80;;;;;;;12.50;40.24;98161.47;5034920;28;20025;-23
2023/12/17 06:20:21;;;;;;;2.42;0.80;;;;;;;12.50;40.08;98161.47;5038049;28;20017;-23
2023/12/17 06:22:49;;;;;;;2.47;0.98;;;;;;;12.46;40.41;98166.16;5037482;28;20029;-23
2023/12/17 06:25:15;;;;;;;6.57;1.70;;;;;;;12.25;40.75;98171.69;5040551;28;20025;-23
2023/12/17 06:27:40;;;;;;;4.03;1.20;;;;;;;12.54;40.34;98175.06;5037730;28;20033;-23
2023/12/17 06:30:07;;;;;;;6.57;1.40;;;;;;;12.37;40.55;98173.19;5037797;28;20028;-22
2023/12/17 06:32:32;;;;;;;1.75;0.90;;;;;;;12.28;40.46;98176.34;5037929;28;20482;-23
2023/12/17 06:34:58;;;;;;;1.60;0.98;;;;;;;12.53;40.52;98177.00;5037152;28;20033;-23
2023/12/17 06:37:23;;;;;;;2.88;0.90;;;;;;;12.42;40.32;98181.72;5038771;28;20139;-23
2023/12/17 06:39:50;;;;;;;3.08;0.98;;;;;;;12.44;40.52;98184.06;5050589;28;20021;-23
2023/12/17 06:42:15;;;;;;;4.10;1.20;;;;;;;12.28;40.60;98203.53;5044726;28;20029;-23
2023/12/17 06:44:41;;;;;;;3.40;1.08;;;;;;;12.38;40.84;98197.28;5044789;28;20017;-23
2023/12/17 06:47:06;;;;;;;1.75;0.70;;;;;;;12.56;40.03;98203.44;5036471;28;20068;-23
2023/12/17 06:49:32;;;;;;;1.95;1.10;;;;;;;12.29;40.54;98218.69;5037433;28;20063;-23
2023/12/17 06:51:57;;;;;;;3.95;0.90;;;;;;;12.59;40.16;98221.72;5043938;28;20028;-23
2023/12/17 06:54:23;;;;;;;2.92;1.10;;;;;;;12.45;40.49;98235.38;5036956;28;20021;-23
2023/12/17 06:56:49;;;;;;;2.95;0.95;;;;;;;12.31;40.42;98224.53;5034109;28;20045;-23
2023/12/17 06:59:15;;;;;;;3.00;1.20;;;;;;;12.43;40.30;98226.81;5036378;28;20028;-23
2023/12/17 07:01:40;;;;;;;5.72;2.17;;;;;;;12.40;40.51;98224.88;5038531;28;20014;-23
2023/12/17 07:04:06;;;;;;;9.23;3.95;;;;;;;12.35;40.65;98230.75;5046692;28;20021;-23
2023/12/17 07:06:31;;;;;;;6.00;3.10;;;;;;;12.39;40.60;98219.81;5040161;28;20025;-23
2023/12/17 07:08:57;;;;;;;4.40;1.90;;;;;;;12.19;40.69;98209.41;5043970;28;20017;-23
2023/12/17 07:11:22;;;;;;;3.05;1.30;;;;;;;12.13;40.58;98219.13;5018818;28;20391;-24
2023/12/17 07:13:49;;;;;;;4.68;1.25;;;;;;;12.53;40.10;98215.09;5026421;28;20032;-23
2023/12/17 07:16:24;;;;;;;4.28;1.17;;;;;;;12.35;40.29;98230.75;5036797;28;20037;-23
2023/12/17 07:18:50;;;;;;;3.47;1.10;;;;;;;12.59;40.38;98229.88;5043415;28;20033;-23
2023/12/17 07:21:16;;;;;;;4.63;1.33;;;;;;;12.36;40.53;98237.75;5042010;28;20017;-23
2023/12/17 07:23:42;;;;;;;3.65;1.10;;;;;;;12.32;40.86;98242.41;5025378;28;20020;-23
2023/12/17 07:26:07;;;;;;;3.47;1.13;;;;;;;12.34;40.93;98239.28;5020463;28;20064;-23
2023/12/17 07:28:33;;;;;;;5.43;1.20;;;;;;;12.41;40.58;98242.75;5036312;28;20530;-23
2023/12/17 07:30:58;;;;;;;4.72;1.42;;;;;;;12.54;40.40;98245.81;5035866;28;20025;-23
2023/12/17 07:33:24;;;;;;;2.80;1.08;;;;;;;12.37;41.01;98252.09;5038754;28;20025;-23
2023/12/17 07:35:50;;;;;;;2.15;0.93;;;;;;;12.36;41.21;98247.84;5040673;28;20159;-23
2023/12/17 07:38:16;;;;;;;2.40;1.38;;;;;;;12.25;41.18;98253.28;5042565;28;20018;-23
2023/12/17 07:40:41;;;;;;;3.63;0.90;;;;;;;12.37;40.95;98255.59;5036243;28;20068;-23
2023/12/17 07:43:07;;;;;;;2.95;1.00;;;;;;;12.24;41.25;98255.22;5035960;28;20490;-23
2023/12/17 07:45:33;;;;;;;1.85;1.00;;;;;;;12.44;40.77;98252.09;5036108;28;20394;-23
2023/12/17 07:47:59;;;;;;;1.58;1.02;;;;;;;12.35;41.14;98249.00;5042947;28;20399;-23
2023/12/17 07:50:25;;;;;;;3.50;0.90;;;;;;;12.57;40.61;98258.66;5042807;28;20039;-23
2023/12/17 07:52:50;;;;;;;3.35;1.10;;;;;;;12.65;40.71;98237.59;5018083;28;20450;-23
2023/12/17 07:55:16;;;;;;;3.97;1.17;;;;;;;12.45;41.04;98254.41;5024802;28;20087;-23
2023/12/17 07:57:41;;;;;;;2.53;1.08;;;;;;;12.45;40.81;98261.81;5036486;28;20044;-23
2023/12/17 08:00:08;;;;;;;2.78;1.90;;;;;;;12.35;41.29;98268.84;5039687;28;20078;-23
2023/12/17 08:02:34;;;;;;;4.07;1.20;;;;;;;12.41;41.15;98272.69;5045308;28;20078;-23
2023/12/17 08:04:59;;;;;;;3.53;1.52;;;;;;;12.41;41.11;98269.97;5042810;28;20021;-23
2023/12/17 08:07:25;;;;;;;7.28;3.05;;;;;;;12.55;41.07;98278.09;5035294;28;20029;-23
2023/12/17 08:09:50;;;;;;;12.02;5.25;;;;;;;12.50;41.28;98275.75;5035839;28;20120;-23
2023/12/17 08:12:16;;;;;;;30.48;12.15;;;;;;;12.52;41.00;98283.53;5035546;28;20026;-23
2023/12/17 08:14:41;;;;;;;21.27;10.05;;;;;;;12.50;41.22;98270.31;5042371;28;20029;-23
2023/12/17 08:17:07;;;;;;;28.02;11.15;;;;;;;12.32;41.37;98266.88;5042617;28;20022;-23
2023/12/17 08:19:33;;;;;;;33.15;14.00;;;;;;;12.45;41.15;98278.91;5035017;28;20029;-23
2023/12/17 08:21:58;;;;;;;30.55;13.30;;;;;;;12.35;41.70;98277.00;5040181;28;20029;-23
2023/12/17 08:24:24;;;;;;;26.08;10.45;;;;;;;12.54;40.92;98276.53;5035519;28;20177;-23
2023/12/17 08:26:51;;;;;;;47.10;17.60;;;;;;;12.53;41.24;98285.09;5034870;28;20470;-22
2023/12/17 08:29:17;;;;;;;53.88;19.90;;;;;;;12.58;40.82;98293.63;5037390;28;20036;-23
2023/12/17 08:31:44;;;;;;;45.42;17.65;;;;;;;12.61;41.15;98292.06;5040461;28;20022;-23
2023/12/17 08:34:11;;;;;;;40.05;17.08;;;;;;;12.55;41.59;98291.69;5042441;28;20037;-23
2023/12/17 08:36:36;;;;;;;34.65;13.38;;;;;;;12.49;41.03;98295.97;5034788;28;20064;-23
2023/12/17 08:39:05;;;;;;;29.92;12.32;;;;;;;12.64;40.75;98301.38;5035183;28;20056;-22
2023/12/17 08:41:31;;;;;;;32.13;15.52;;;;;;;12.61;41.08;98296.75;5035227;28;20024;-23
2023/12/17 08:43:56;;;;;;;26.38;12.82;;;;;;;12.78;40.73;98288.50;5029280;28;20375;-23
2023/12/17 08:46:22;;;;;;;23.63;9.90;;;;;;;12.68;41.62;98313.03;5044445;28;20031;-23
2023/12/17 08:48:47;;;;;;;15.88;6.32;;;;;;;12.88;40.72;98312.19;5034071;28;20042;-23
2023/12/17 08:51:13;;;;;;;10.55;3.67;;;;;;;12.66;41.09;98316.16;5034415;28;20029;-23
2023/12/17 08:53:40;;;;;;;5.22;2.90;;;;;;;12.83;40.96;98317.28;5035364;28;20025;-23
2023/12/17 08:56:08;;;;;;;9.20;3.22;;;;;;;13.17;40.59;98312.06;5039431;28;20017;-23
2023/12/17 08:58:33;;;;;;;6.75;2.90;;;;;;;14.41;38.20;98311.13;5037177;28;20032;-23
2023/12/17 09:00:59;;;;;;;5.28;1.88;;;;;;;18.88;30.20;98305.34;5041982;28;20355;-23
2023/12/17 09:03:24;;;;;;;3.65;2.00;;;;;;;21.62;25.89;98315.44;5034597;28;20025;-23
2023/12/17 09:05:50;;;;;;;3.47;1.85;;;;;;;22.39;24.84;98307.94;5035356;28;20039;-23
2023/12/17 09:08:15;;;;;;;4.85;2.60;;;;;;;23.17;23.37;98313.59;5034030;28;20115;-23
2023/12/17 09:10:41;;;;;;;5.55;2.10;;;;;;;23.71;22.75;98325.75;5034571;28;20022;-23
2023/12/17 09:13:09;;;;;;;8.52;2.80;;;;;;;23.82;22.72;98328.75;5041661;28;20021;-23
2023/12/17 09:15:35;;;;;;;7.70;3.17;;;;;;;24.56;21.68;98313.22;5034419;28;20030;-23
2023/12/17 09:18:01;;;;;;;15.35;5.53;;;;;;;25.58;20.46;98335.97;5034654;28;20017;-23
2023/12/17 09:20:26;;;;;;;8.93;3.85;;;;;;;26.37;19.96;98327.53;5016750;28;20367;-23
2023/12/17 09:22:52;;;;;;;9.05;4.50;;;;;;;26.19;19.75;98338.91;5033979;28;20072;-23
2023/12/17 09:25:18;;;;;;;9.20;3.75;;;;;;;26.51;19.01;98328.69;5041729;28;20021;-23
2023/12/17 09:27:43;;;;;;;5.15;2.90;;;;;;;27.31;18.68;98327.78;5034671;28;20407;-23
2023/12/17 09:30:09;;;;;;;5.72;2.75;;;;;;;26.91;19.01;98322.31;5034699;28;20084;-23
2023/12/17 09:32:35;;;;;;;6.05;2.30;;;;;;;26.81;18.91;98319.69;5034346;28;20433;-23
2023/12/17 09:35:01;;;;;;;8.25;3.05;;;;;;;27.52;18.46;98323.66;5034407;28;20032;-24
2023/12/17 09:37:26;;;;;;;7.45;4.10;;;;;;;26.62;19.33;98337.94;5034274;28;20029;-23
2023/12/17 09:39:53;;;;;;;9.73;5.05;;;;;;;24.42;21.27;98333.34;5041479;28;20025;-24
2023/12/17 09:42:19;;;;;;;18.98;10.25;;;;;;;20.08;27.32;98331.16;5041060;28;20425;-24
2023/12/17 09:44:45;;;;;;;14.50;8.13;;;;;;;18.10;30.38;98328.59;5041599;28;20029;-24
2023/12/17 09:47:11;;;;;;;20.45;11.02;;;;;;;16.71;32.99;98328.09;5013148;28;20052;-24
2023/12/17 09:49:36;;;;;;;20.55;10.05;;;;;;;16.22;34.25;98330.53;5011781;28;20034;-23
2023/12/17 09:52:12;;;;;;;17.25;9.02;;;;;;;15.97;35.03;98330.16;5011973;28;20022;-23
2023/12/17 09:54:38;;;;;;;20.67;13.38;;;;;;;15.48;36.03;98331.66;5012383;28;20022;-23
2023/12/17 09:57:06;;;;;;;25.77;14.40;;;;;;;15.36;36.03;98316.59;5012405;28;20029;-23
2023/12/17 09:59:32;;;;;;;23.80;13.18;;;;;;;15.14;36.62;98301.69;5011576;28;20439;-24
2023/12/17 10:01:58;;;;;;;21.95;11.40;;;;;;;14.99;37.24;98303.81;5007910;28;20041;-23
2023/12/17 10:04:24;;;;;;;17.20;9.75;;;;;;;14.59;37.88;98310.94;5015743;28;20018;-23
2023/12/17 10:06:51;;;;;;;13.20;6.80;;;;;;;14.65;38.22;98310.09;5014912;28;20426;-23
2023/12/17 10:09:16;;;;;;;9.80;5.38;;;;;;;14.48;38.46;98307.53;5023456;28;20410;-23
2023/12/17 10:11:41;;;;;;;9.43;5.15;;;;;;;14.41;39.10;98300.22;5015470;28;20030;-23
2023/12/17 10:14:20;;;;;;;8.48;3.53;;;;;;;14.37;38.96;98291.25;5015337;28;20386;-23
2023/12/17 10:16:46;;;;;;;8.10;3.20;;;;;;;14.30;38.73;98294.06;5015270;28;20022;-23
2023/12/17 10:19:12;;;;;;;7.10;3.70;;;;;;;14.16;39.45;98299.66;5030045;28;20028;-23
2023/12/17 10:21:38;;;;;;;5.68;2.90;;;;;;;14.24;39.41;98293.72;5016145;28;20430;-23
2023/12/17 10:24:04;;;;;;;4.47;2.40;;;;;;;14.11;39.26;98305.53;5014749;28;20025;-23
2023/12/17 10:26:43;;;;;;;7.25;4.28;;;;;;;13.93;39.88;98303.75;5015489;28;20037;-23
2023/12/17 10:29:14;;;;;;;6.18;3.35;;;;;;;13.98;39.42;98306.03;5015834;28;20025;-23
2023/12/17 10:31:41;;;;;;;9.27;5.10;;;;;;;13.97;39.57;98293.56;5015867;28;20025;-23
2023/12/17 10:34:22;;;;;;;7.38;3.83;;;;;;;13.77;40.29;98300.00;5015480;28;20054;-23
2023/12/17 10:36:48;;;;;;;6.97;2.70;;;;;;;13.92;39.86;98293.25;5010499;28;20057;-23
2023/12/17 10:39:15;;;;;;;6.32;2.67;;;;;;;13.72;40.53;98298.50;5015229;28;20022;-23
2023/12/17 10:41:45;;;;;;;4.28;2.17;;;;;;;13.95;40.05;98295.97;5015728;28;20030;-23
2023/12/17 10:44:14;;;;;;;4.65;2.10;;;;;;;13.91;39.93;98300.66;5015392;28;20026;-23
2023/12/17 10:46:44;;;;;;;3.70;2.05;;;;;;;13.92;39.96;98301.44;5014885;28;20088;-23
2023/12/17 10:49:11;;;;;;;7.22;2.22;;;;;;;13.69;40.47;98301.25;5043022;28;20037;-23
2023/12/17 10:51:39;;;;;;;7.72;4.40;;;;;;;13.80;40.74;98293.75;5044702;28;20025;-23
2023/12/17 10:54:08;;;;;;;12.02;6.22;;;;;;;13.65;40.82;98288.41;5036338;28;20027;-23
2023/12/17 10:56:48;;;;;;;9.90;5.07;;;;;;;13.45;41.06;98281.16;5037688;28;20075;-23
2023/12/17 10:59:18;;;;;;;14.60;7.93;;;;;;;13.74;40.80;98293.38;5019371;28;20430;-23
2023/12/17 11:01:48;;;;;;;11.48;5.95;;;;;;;13.70;41.17;98284.47;5027907;28;20017;-23
2023/12/17 11:04:14;;;;;;;9.80;4.95;;;;;;;13.68;41.24;98286.81;5046734;28;20075;-23
2023/12/17 11:06:39;;;;;;;12.02;5.13;;;;;;;13.81;40.72;98285.16;5039141;28;20025;-23
2023/12/17 11:09:05;;;;;;;9.73;4.32;;;;;;;13.73;40.89;98282.88;5037002;28;20076;-26
2023/12/17 11:11:32;;;;;;;10.50;5.35;;;;;;;13.77;41.22;98278.19;5036912;28;20014;-25
2023/12/17 11:13:58;;;;;;;8.90;6.03;;;;;;;13.89;41.44;98274.97;5037741;28;20034;-25
2023/12/17 11:16:25;;;;;;;7.57;4.93;;;;;;;13.89;41.35;98269.50;5042746;28;20021;-25
2023/12/17 11:18:53;;;;;;;11.23;6.22;;;;;;;13.72;41.56;98270.44;5043974;28;20036;-25
2023/12/17 11:21:19;;;;;;;10.95;5.95;;;;;;;13.84;40.84;98248.91;5043926;28;20462;-25
2023/12/17 11:23:49;;;;;;;10.32;5.38;;;;;;;13.81;41.57;98247.00;5036107;28;20040;-25
2023/12/17 11:26:16;;;;;;;10.60;5.00;;;;;;;13.80;41.52;98234.53;5037285;28;20104;-25